createdAt,value
2018-04-08T00:00:20.933Z,40.50
2018-04-08T00:02:48.442Z,40.50
2018-04-08T00:05:15.894Z,41.20
2018-04-08T00:07:43.397Z,41.40
2018-04-08T00:10:10.825Z,42.00
2018-04-08T00:12:39.078Z,43.00
2018-04-08T00:15:06.513Z,43.00
2018-04-08T00:17:34.009Z,42.40
2018-04-08T00:20:01.915Z,42.40
2018-04-08T00:22:29.370Z,41.40
2018-04-08T00:25:00.345Z,42.20
2018-04-08T00:27:27.791Z,41.40
2018-04-08T00:29:55.833Z,40.30
2018-04-08T00:32:23.281Z,40.30
2018-04-08T00:34:51.487Z,41.70
2018-04-08T00:37:18.926Z,41.60
2018-04-08T00:39:46.604Z,41.80
2018-04-08T00:42:14.073Z,41.80
2018-04-08T00:44:41.729Z,40.10
2018-04-08T00:47:09.189Z,40.00
2018-04-08T00:49:36.637Z,39.80
2018-04-08T00:52:05.006Z,39.80
2018-04-08T00:54:32.453Z,39.70
2018-04-08T00:57:01.492Z,39.50
2018-04-08T00:59:29.021Z,39.50
2018-04-08T01:01:56.461Z,40.20
2018-04-08T01:04:24.683Z,39.00
2018-04-08T01:06:52.133Z,39.00
2018-04-08T01:09:19.589Z,39.30
2018-04-08T01:11:47.673Z,39.50
2018-04-08T01:14:15.117Z,39.30
2018-04-08T01:16:42.553Z,39.40
2018-04-08T01:19:10.034Z,39.60
2018-04-08T01:21:37.453Z,39.50
2018-04-08T01:24:05.691Z,39.80
2018-04-08T01:26:33.121Z,39.80
2018-04-08T01:29:00.578Z,40.00
2018-04-08T01:31:28.149Z,40.00
2018-04-08T01:33:55.597Z,39.70
2018-04-08T01:36:23.077Z,39.70
2018-04-08T01:38:50.593Z,40.00
2018-04-08T01:41:18.037Z,40.20
2018-04-08T01:43:46.262Z,40.00
2018-04-08T01:46:13.700Z,40.00
2018-04-08T01:48:41.141Z,40.00
2018-04-08T01:51:08.594Z,40.00
2018-04-08T01:53:36.038Z,40.30
2018-04-08T01:56:04.246Z,39.90
2018-04-08T01:58:31.823Z,39.90
2018-04-08T02:00:59.263Z,40.10
2018-04-08T02:03:26.722Z,40.10
2018-04-08T02:05:54.159Z,40.00
2018-04-08T02:08:22.381Z,39.80
2018-04-08T02:10:49.806Z,39.80
2018-04-08T02:13:17.281Z,39.80
2018-04-08T02:15:44.729Z,39.60
2018-04-08T02:18:12.184Z,39.80
2018-04-08T02:20:39.633Z,40.00
2018-04-08T02:23:07.101Z,40.00
2018-04-08T02:25:34.536Z,40.00
2018-04-08T02:28:02.253Z,40.10
2018-04-08T02:30:29.703Z,40.60
2018-04-08T02:32:57.141Z,40.30
2018-04-08T02:35:24.605Z,40.30
2018-04-08T02:37:52.128Z,40.30
2018-04-08T02:40:19.571Z,40.90
2018-04-08T02:42:47.770Z,41.30
2018-04-08T02:45:15.223Z,41.30
2018-04-08T02:47:42.702Z,41.90
2018-04-08T02:50:10.143Z,42.30
2018-04-08T02:52:37.578Z,42.30
2018-04-08T02:55:05.792Z,41.90
2018-04-08T02:57:33.328Z,41.80
2018-04-08T03:00:02.459Z,41.30
2018-04-08T03:02:29.954Z,41.20
2018-04-08T03:04:57.426Z,42.30
2018-04-08T03:07:25.641Z,43.40
2018-04-08T03:09:53.102Z,43.40
2018-04-08T03:12:20.541Z,42.70
2018-04-08T03:14:47.986Z,40.80
2018-04-08T03:17:16.197Z,40.50
2018-04-08T03:19:43.638Z,40.50
2018-04-08T03:22:11.114Z,40.40
2018-04-08T03:24:38.549Z,40.40
2018-04-08T03:27:05.990Z,39.40
2018-04-08T03:29:34.197Z,39.60
2018-04-08T03:32:02.314Z,39.60
2018-04-08T03:34:29.749Z,39.90
2018-04-08T03:36:57.195Z,40.90
2018-04-08T03:39:24.655Z,41.50
2018-04-08T03:41:52.208Z,42.70
2018-04-08T03:44:19.665Z,43.40
2018-04-08T03:46:48.516Z,44.60
2018-04-08T03:49:16.734Z,44.60
2018-04-08T03:51:44.172Z,44.50
2018-04-08T03:54:11.616Z,45.10
2018-04-08T03:56:39.076Z,45.40
2018-04-08T03:59:06.543Z,44.90
2018-04-08T04:01:33.981Z,45.90
2018-04-08T04:04:02.351Z,46.10
2018-04-08T04:06:30.561Z,46.40
2018-04-08T04:08:58.013Z,46.20
2018-04-08T04:11:26.262Z,46.00
2018-04-08T04:13:54.472Z,46.30
2018-04-08T04:16:22.381Z,46.20
2018-04-08T04:19:01.622Z,46.10
2018-04-08T04:21:41.081Z,45.90
2018-04-08T04:24:21.179Z,46.20
2018-04-08T04:26:48.662Z,46.20
2018-04-08T04:29:16.101Z,47.40
2018-04-08T04:31:43.562Z,47.50
2018-04-08T04:34:11.046Z,46.60
2018-04-08T04:36:38.505Z,48.60
2018-04-08T04:39:05.952Z,47.20
2018-04-08T04:41:33.393Z,47.60
2018-04-08T04:44:00.835Z,48.10
2018-04-08T04:46:28.318Z,47.40
2018-04-08T04:48:55.773Z,49.00
2018-04-08T04:51:23.218Z,49.00
2018-04-08T04:53:50.665Z,49.30
2018-04-08T04:56:18.106Z,48.70
2018-04-08T04:58:45.547Z,48.30
2018-04-08T05:01:13.838Z,48.40
2018-04-08T05:03:41.283Z,48.40
2018-04-08T05:06:10.334Z,48.30
2018-04-08T05:08:38.699Z,48.30
2018-04-08T05:11:06.158Z,49.10
2018-04-08T05:13:33.583Z,48.80
2018-04-08T05:16:01.033Z,49.10
2018-04-08T05:18:28.474Z,48.80
2018-04-08T05:20:56.694Z,49.20
2018-04-08T05:23:24.186Z,49.20
2018-04-08T05:25:51.645Z,48.70
2018-04-08T05:28:19.087Z,48.70
2018-04-08T05:30:46.584Z,49.80
2018-04-08T05:33:14.798Z,50.60
2018-04-08T05:35:42.258Z,50.50
2018-04-08T05:38:09.694Z,50.00
2018-04-08T05:40:38.000Z,50.30
2018-04-08T05:43:06.338Z,49.90
2018-04-08T05:45:33.782Z,49.90
2018-04-08T05:48:02.925Z,49.70
2018-04-08T05:50:30.384Z,49.70
2018-04-08T05:52:57.837Z,49.90
2018-04-08T05:55:25.320Z,49.20
2018-04-08T05:57:52.804Z,49.40
2018-04-08T06:00:21.144Z,48.10
2018-04-08T06:02:48.616Z,48.00
2018-04-08T06:05:16.065Z,47.30
2018-04-08T06:07:43.537Z,47.40
2018-04-08T06:10:10.994Z,48.10
2018-04-08T06:12:38.421Z,48.10
2018-04-08T06:15:05.880Z,47.60
2018-04-08T06:17:33.455Z,47.70
2018-04-08T06:20:00.890Z,47.60
2018-04-08T06:22:28.385Z,48.60
2018-04-08T06:24:55.851Z,46.80
2018-04-08T06:27:23.289Z,46.20
2018-04-08T06:29:50.774Z,46.10
2018-04-08T06:32:18.223Z,45.30
2018-04-08T06:34:45.688Z,42.60
2018-04-08T06:37:13.204Z,41.20
2018-04-08T06:39:40.626Z,38.10
2018-04-08T06:42:08.852Z,38.00
2018-04-08T06:44:36.296Z,37.90
2018-04-08T06:47:03.752Z,37.60
2018-04-08T06:49:31.196Z,38.60
2018-04-08T06:51:58.663Z,38.50
2018-04-08T06:54:26.098Z,39.50
2018-04-08T06:56:53.539Z,37.90
2018-04-08T06:59:21.816Z,36.40
2018-04-08T07:01:50.023Z,36.30
2018-04-08T07:04:17.529Z,36.20
2018-04-08T07:06:45.732Z,35.90
2018-04-08T07:09:13.918Z,35.90
2018-04-08T07:11:41.361Z,35.90
2018-04-08T07:14:09.570Z,35.40
2018-04-08T07:16:37.009Z,35.30
2018-04-08T07:19:04.467Z,36.70
2018-04-08T07:21:31.922Z,33.40
2018-04-08T07:23:59.391Z,33.30
2018-04-08T07:26:27.614Z,33.10
2018-04-08T07:28:55.051Z,33.00
2018-04-08T07:31:22.511Z,32.50
2018-04-08T07:33:49.943Z,31.50
2018-04-08T07:36:18.032Z,31.00
2018-04-08T07:38:45.469Z,30.60
2018-04-08T07:41:12.912Z,30.40
2018-04-08T07:43:40.347Z,29.60
2018-04-08T07:46:08.580Z,30.10
2018-04-08T07:48:36.032Z,29.90
2018-04-08T07:51:03.494Z,30.40
2018-04-08T07:53:32.191Z,30.10
2018-04-08T07:55:59.630Z,29.60
2018-04-08T07:58:27.094Z,29.50
2018-04-08T08:00:54.632Z,29.70
2018-04-08T08:03:22.069Z,29.60
2018-04-08T08:05:50.805Z,29.50
2018-04-08T08:08:18.260Z,29.50
2018-04-08T08:10:45.706Z,29.60
2018-04-08T08:13:13.142Z,28.40
2018-04-08T08:15:40.578Z,29.40
2018-04-08T08:18:08.778Z,28.60
2018-04-08T08:20:36.251Z,28.60
2018-04-08T08:23:03.727Z,28.80
2018-04-08T08:25:31.166Z,29.30
2018-04-08T08:27:58.628Z,29.10
2018-04-08T08:30:26.069Z,29.00
2018-04-08T08:32:53.532Z,28.50
2018-04-08T08:35:20.973Z,28.50
2018-04-08T08:37:48.429Z,29.20
2018-04-08T08:40:15.890Z,29.30
2018-04-08T08:42:43.337Z,28.90
2018-04-08T08:45:11.550Z,28.30
2018-04-08T08:47:39.004Z,28.30
2018-04-08T08:50:06.441Z,29.10
2018-04-08T09:18:27.267Z,31.60
2018-04-08T09:21:11.518Z,30.30
2018-04-08T09:23:40.425Z,28.20
2018-04-08T09:26:07.898Z,27.70
2018-04-08T09:28:36.154Z,26.10
2018-04-08T09:31:03.595Z,26.00
2018-04-08T09:33:31.017Z,25.50
2018-04-08T09:35:58.477Z,25.10
2018-04-08T09:38:25.924Z,25.90
2018-04-08T09:40:54.151Z,26.70
2018-04-08T09:43:21.590Z,26.70
2018-04-08T09:45:49.045Z,27.20
2018-04-08T09:48:16.499Z,26.30
2018-04-08T09:50:43.918Z,26.80
2018-04-08T09:53:12.131Z,26.90
2018-04-08T09:55:39.557Z,26.90
2018-04-08T09:58:07.014Z,27.00
2018-04-08T10:00:51.011Z,27.10
2018-04-08T10:03:30.220Z,27.00
2018-04-08T10:05:57.661Z,27.80
2018-04-08T10:08:25.112Z,28.10
2018-04-08T10:10:53.312Z,27.50
2018-04-08T10:13:20.786Z,27.50
2018-04-08T10:15:48.992Z,27.70
2018-04-08T10:18:16.529Z,27.20
2018-04-08T10:20:43.966Z,28.70
2018-04-08T10:23:11.430Z,27.40
2018-04-08T10:25:38.866Z,28.40
2018-04-08T10:28:06.323Z,28.50
2018-04-08T10:30:33.772Z,28.40
2018-04-08T10:33:01.990Z,27.80
2018-04-08T10:35:29.423Z,27.80
2018-04-08T10:37:56.938Z,28.90
2018-04-08T10:40:25.133Z,28.70
2018-04-08T10:42:52.573Z,28.40
2018-04-08T10:45:20.790Z,28.00
2018-04-08T10:47:48.226Z,27.50
2018-04-08T10:50:15.690Z,28.20
2018-04-08T10:52:43.125Z,28.30
2018-04-08T10:55:11.338Z,28.10
2018-04-08T10:57:38.786Z,28.00
2018-04-08T11:00:06.221Z,27.20
2018-04-08T11:02:34.442Z,26.20
2018-04-08T11:05:01.897Z,26.20
2018-04-08T11:07:29.332Z,27.10
2018-04-08T11:09:56.758Z,26.50
2018-04-08T11:12:24.992Z,26.70
2018-04-08T11:14:52.442Z,26.60
2018-04-08T11:17:19.994Z,25.40
2018-04-08T11:19:47.409Z,25.20
2018-04-08T11:22:15.614Z,25.70
2018-04-08T11:24:43.070Z,25.70
2018-04-08T11:27:10.499Z,24.90
2018-04-08T11:29:37.933Z,23.80
2018-04-08T11:32:05.370Z,24.10
2018-04-08T11:34:33.540Z,24.00
2018-04-08T11:37:00.986Z,24.90
2018-04-08T11:39:28.434Z,25.20
2018-04-08T11:41:56.051Z,24.40
2018-04-08T11:44:23.489Z,25.80
2018-04-08T11:46:50.921Z,25.40
2018-04-08T11:49:18.374Z,24.30
2018-04-08T11:51:45.821Z,23.90
2018-04-08T11:54:13.257Z,24.20
2018-04-08T11:56:41.466Z,23.90
2018-04-08T11:59:09.729Z,23.90
2018-04-08T12:01:37.435Z,25.00
2018-04-08T12:04:05.431Z,24.50
2018-04-08T12:06:32.865Z,24.60
2018-04-08T12:09:00.336Z,25.00
2018-04-08T12:11:27.794Z,25.70
2018-04-08T12:13:55.250Z,25.30
2018-04-08T12:16:22.694Z,25.60
2018-04-08T12:18:50.150Z,25.00
2018-04-08T12:21:17.633Z,25.80
2018-04-08T12:23:45.065Z,25.40
2018-04-08T12:26:12.961Z,24.80
2018-04-08T12:28:41.169Z,23.80
2018-04-08T12:31:09.546Z,23.70
2018-04-08T12:33:37.413Z,23.50
2018-04-08T12:36:04.855Z,23.80
2018-04-08T12:38:33.147Z,24.00
2018-04-08T12:41:00.624Z,24.00
2018-04-08T12:43:28.091Z,24.70
2018-04-08T12:45:55.513Z,25.70
2018-04-08T12:48:22.945Z,25.50
2018-04-08T12:50:51.159Z,24.80
2018-04-08T12:53:18.613Z,24.70
2018-04-08T12:55:46.042Z,24.60
2018-04-08T12:58:14.262Z,25.60
2018-04-08T13:00:41.710Z,25.50
2018-04-08T13:03:09.134Z,25.50
2018-04-08T13:05:37.413Z,25.30
2018-04-08T13:08:05.624Z,26.10
2018-04-08T13:10:33.110Z,26.10
2018-04-08T13:13:00.521Z,25.70
2018-04-08T13:15:27.966Z,26.20
2018-04-08T13:17:56.169Z,23.90
2018-04-08T13:20:23.646Z,23.90
2018-04-08T13:22:51.496Z,25.00
2018-04-08T13:25:18.928Z,25.10
2018-04-08T13:27:46.397Z,25.00
2018-04-08T13:30:13.854Z,23.70
2018-04-08T13:32:41.310Z,24.70
2018-04-08T13:35:09.523Z,24.90
2018-04-08T13:37:36.968Z,24.80
2018-04-08T13:40:04.422Z,25.50
2018-04-08T13:42:31.867Z,25.30
2018-04-08T13:44:59.304Z,25.30
2018-04-08T13:47:27.511Z,24.80
2018-04-08T13:49:54.937Z,24.80
2018-04-08T13:52:22.450Z,23.80
2018-04-08T13:54:49.910Z,24.80
2018-04-08T13:57:17.409Z,24.30
2018-04-08T13:59:44.837Z,24.60
2018-04-08T14:02:12.270Z,24.70
2018-04-08T14:04:39.729Z,25.70
2018-04-08T14:07:07.149Z,24.50
2018-04-08T14:09:34.579Z,24.50
2018-04-08T14:12:03.696Z,25.40
2018-04-08T14:14:31.134Z,25.40
2018-04-08T14:16:59.352Z,24.40
2018-04-08T14:19:26.800Z,24.30
2018-04-08T14:21:54.263Z,25.10
2018-04-08T14:24:21.693Z,25.10
2018-04-08T14:26:49.903Z,24.20
2018-04-08T14:29:17.377Z,24.20
2018-04-08T14:31:44.831Z,24.20
2018-04-08T14:34:12.258Z,23.80
2018-04-08T14:36:39.707Z,24.80
2018-04-08T14:39:07.930Z,25.20
2018-04-08T14:41:35.359Z,25.10
2018-04-08T14:44:03.788Z,24.70
2018-04-08T14:46:31.252Z,24.50
2018-04-08T14:48:58.661Z,25.00
2018-04-08T14:51:26.117Z,25.20
2018-04-08T14:53:53.554Z,25.50
2018-04-08T14:56:20.997Z,25.20
2018-04-08T14:58:49.210Z,25.40
2018-04-08T15:01:16.647Z,25.30
2018-04-08T15:03:44.086Z,25.40
2018-04-08T15:06:12.293Z,25.50
2018-04-08T15:08:39.722Z,25.40
2018-04-08T15:11:07.918Z,25.70
2018-04-08T15:13:35.369Z,25.70
2018-04-08T15:16:03.773Z,25.50
2018-04-08T15:18:31.223Z,24.90
2018-04-08T15:20:58.683Z,25.30
2018-04-08T15:23:26.145Z,25.40
2018-04-08T15:25:53.577Z,25.10
2018-04-08T15:28:21.030Z,25.00
2018-04-08T15:30:49.229Z,25.40
2018-04-08T15:33:16.673Z,25.40
2018-04-08T15:35:44.118Z,26.50
2018-04-08T15:38:12.336Z,25.10
2018-04-08T15:40:39.766Z,25.10
2018-04-08T15:43:07.238Z,25.10
2018-04-08T15:45:34.671Z,25.60
2018-04-08T15:48:03.781Z,25.30
2018-04-08T15:50:31.233Z,25.20
2018-04-08T15:52:58.702Z,25.10
2018-04-08T15:55:26.158Z,26.00
2018-04-08T15:57:53.591Z,24.60
2018-04-08T16:00:21.800Z,25.40
2018-04-08T16:02:49.260Z,25.50
2018-04-08T16:05:16.682Z,24.80
2018-04-08T16:07:44.881Z,25.60
2018-04-08T16:10:12.326Z,25.50
2018-04-08T16:12:39.758Z,26.40
2018-04-08T16:15:07.957Z,26.60
2018-04-08T16:17:35.401Z,26.30
2018-04-08T16:20:04.637Z,26.40
2018-04-08T16:22:32.097Z,26.40
2018-04-08T16:24:59.549Z,26.40
2018-04-08T16:27:26.989Z,26.10
2018-04-08T16:29:54.445Z,26.40
2018-04-08T16:32:21.893Z,26.50
2018-04-08T16:34:50.097Z,26.70
2018-04-08T16:37:17.519Z,26.70
2018-04-08T16:39:45.729Z,26.90
2018-04-08T16:42:13.173Z,26.90
2018-04-08T16:44:40.604Z,27.40
2018-04-08T16:47:08.814Z,27.80
2018-04-08T16:49:36.253Z,27.80
2018-04-08T16:52:04.021Z,28.30
2018-04-08T16:54:31.486Z,28.50
2018-04-08T16:56:59.748Z,29.00
2018-04-08T16:59:27.118Z,29.00
2018-04-08T17:01:54.565Z,29.50
2018-04-08T17:04:22.011Z,29.50
2018-04-08T17:06:50.208Z,30.30
2018-04-08T17:09:17.650Z,30.40
2018-04-08T17:11:45.879Z,30.70
2018-04-08T17:14:13.292Z,30.70
2018-04-08T17:16:40.728Z,31.10
2018-04-08T17:19:08.924Z,31.90
2018-04-08T17:21:36.381Z,31.80
2018-04-08T17:24:04.541Z,31.40
2018-04-08T17:26:32.742Z,31.60
2018-04-08T17:29:00.192Z,32.20
2018-04-08T17:31:27.629Z,32.20
2018-04-08T17:33:55.847Z,32.60
2018-04-08T17:36:23.335Z,32.60
2018-04-08T17:38:50.758Z,33.10
2018-04-08T17:41:18.200Z,34.20
2018-04-08T17:43:45.638Z,34.60
2018-04-08T17:46:13.839Z,35.20
2018-04-08T17:48:41.343Z,35.20
2018-04-08T17:51:08.733Z,35.30
2018-04-08T17:53:36.170Z,35.90
2018-04-08T17:56:04.260Z,37.70
2018-04-08T17:58:32.464Z,38.00
2018-04-08T18:00:59.949Z,38.00
2018-04-08T18:03:27.363Z,38.60
2018-04-08T18:05:54.802Z,38.60
2018-04-08T18:08:23.034Z,39.50
2018-04-08T18:10:50.460Z,39.50
2018-04-08T18:13:17.927Z,40.80
2018-04-08T18:15:45.352Z,40.00
2018-04-08T18:18:13.576Z,39.80
2018-04-08T18:20:41.037Z,39.80
2018-04-08T18:23:08.481Z,40.20
2018-04-08T18:25:35.913Z,40.50
2018-04-08T18:28:04.342Z,40.80
2018-04-08T18:30:31.785Z,41.10
2018-04-08T18:33:00.002Z,40.50
2018-04-08T18:35:27.445Z,40.50
2018-04-08T18:37:54.888Z,40.90
2018-04-08T18:40:22.345Z,41.40
2018-04-08T18:42:49.793Z,41.20
2018-04-08T18:45:17.281Z,41.50
2018-04-08T18:47:44.722Z,42.10
2018-04-08T18:50:12.165Z,42.90
2018-04-08T18:52:39.607Z,43.00
2018-04-08T18:55:07.819Z,43.80
2018-04-08T18:57:35.274Z,43.70
2018-04-08T19:00:02.717Z,42.90
2018-04-08T19:02:30.161Z,44.50
2018-04-08T19:04:57.601Z,44.40
2018-04-08T19:07:25.032Z,45.60
2018-04-08T19:09:53.822Z,43.70
2018-04-08T19:12:22.061Z,44.30
2018-04-08T19:14:55.162Z,43.70
2018-04-08T19:17:28.140Z,43.80
2018-04-08T19:19:55.569Z,43.40
2018-04-08T19:22:23.009Z,43.30
2018-04-08T19:24:50.466Z,43.30
2018-04-08T19:27:23.663Z,43.40
2018-04-08T19:29:51.110Z,43.40
2018-04-08T19:32:18.545Z,42.70
2018-04-08T19:34:46.749Z,43.00
2018-04-08T19:37:14.174Z,43.00
2018-04-08T19:39:41.633Z,42.80
2018-04-08T19:42:09.834Z,44.00
2018-04-08T19:44:37.281Z,43.90
2018-04-08T19:47:05.527Z,43.60
2018-04-08T19:49:32.922Z,43.60
2018-04-08T19:52:00.387Z,43.70
2018-04-08T19:54:27.845Z,44.10
2018-04-08T19:56:55.284Z,43.80
2018-04-08T19:59:23.503Z,43.70
2018-04-08T20:01:50.949Z,43.70
2018-04-08T20:04:18.474Z,44.60
2018-04-08T20:06:46.806Z,44.80
2018-04-08T20:09:14.353Z,45.60
2018-04-08T20:11:41.764Z,45.30
2018-04-08T20:14:09.982Z,46.00
2018-04-08T20:16:37.440Z,45.90
2018-04-08T20:19:04.886Z,46.30
2018-04-08T20:21:32.337Z,47.40
2018-04-08T20:23:59.777Z,46.80
2018-04-08T20:26:28.001Z,47.40
2018-04-08T20:28:55.458Z,47.90
2018-04-08T20:31:22.910Z,47.00
2018-04-08T20:33:50.366Z,47.70
2018-04-08T20:36:17.894Z,48.20
2018-04-08T20:38:46.109Z,49.00
2018-04-08T20:41:13.553Z,48.40
2018-04-08T20:43:40.984Z,47.30
2018-04-08T20:46:08.420Z,47.50
2018-04-08T20:48:36.625Z,47.40
2018-04-08T20:51:05.446Z,47.30
2018-04-08T20:53:32.897Z,47.30
2018-04-08T20:56:00.376Z,48.00
2018-04-08T20:58:27.813Z,47.50
2018-04-08T21:00:55.261Z,47.40
2018-04-08T21:03:22.724Z,47.60
2018-04-08T21:05:50.154Z,47.50
2018-04-08T21:08:17.595Z,48.30
2018-04-08T21:10:45.934Z,48.10
2018-04-08T21:13:13.387Z,48.10
2018-04-08T21:15:40.827Z,48.20
2018-04-08T21:18:08.323Z,47.90
2018-04-08T21:20:35.757Z,48.10
2018-04-08T21:23:03.234Z,48.50
2018-04-08T21:25:30.673Z,48.00
2018-04-08T21:27:58.119Z,48.40
2018-04-08T21:30:25.785Z,49.10
2018-04-08T21:32:53.234Z,48.50
2018-04-08T21:35:20.688Z,48.50
2018-04-08T21:37:48.125Z,48.40
2018-04-08T21:40:15.570Z,49.00
2018-04-08T21:42:43.772Z,48.70
2018-04-08T21:45:11.225Z,48.80
2018-04-08T21:47:38.687Z,48.80
2018-04-08T21:50:06.258Z,49.60
2018-04-08T21:52:33.697Z,50.10
2018-04-08T21:55:01.145Z,50.60
2018-04-08T21:57:29.354Z,51.90
2018-04-08T21:59:56.820Z,51.80
2018-04-08T22:02:24.252Z,51.70
2018-04-08T22:04:51.710Z,53.20
2018-04-08T22:07:19.150Z,52.50
2018-04-08T22:09:47.358Z,52.50
2018-04-08T22:12:14.801Z,52.40
2018-04-08T22:14:42.259Z,52.80
2018-04-08T22:17:09.705Z,52.00
2018-04-08T22:19:37.149Z,52.60
2018-04-08T22:22:04.713Z,53.10
2018-04-08T22:24:32.145Z,52.70
2018-04-08T22:26:59.573Z,53.10
2018-04-08T22:29:27.162Z,52.60
2018-04-08T22:31:54.608Z,52.50
2018-04-08T22:34:22.060Z,53.20
2018-04-08T22:36:49.534Z,53.50
2018-04-08T22:39:16.984Z,53.30
2018-04-08T22:41:44.450Z,54.00
2018-04-08T22:44:11.863Z,53.30
2018-04-08T22:46:39.345Z,52.90
2018-04-08T22:49:06.787Z,53.20
2018-04-08T22:51:34.226Z,54.10
2018-04-08T22:54:01.686Z,54.60
2018-04-08T22:56:29.133Z,54.40
2018-04-08T22:58:56.573Z,55.10
2018-04-08T23:01:24.782Z,55.20
2018-04-08T23:03:52.217Z,55.20
2018-04-08T23:06:19.682Z,55.20
2018-04-08T23:08:47.951Z,55.50
2018-04-08T23:11:16.151Z,55.80
2018-04-08T23:13:43.593Z,55.80
2018-04-08T23:16:11.052Z,56.10
2018-04-08T23:18:38.484Z,55.60
2018-04-08T23:21:06.878Z,55.30
2018-04-08T23:23:35.081Z,55.80
2018-04-08T23:26:02.525Z,55.80
2018-04-08T23:28:29.971Z,56.20
2018-04-08T23:30:58.189Z,56.40
2018-04-08T23:33:25.671Z,56.40
2018-04-08T23:35:53.105Z,57.00
2018-04-08T23:38:20.563Z,57.20
2018-04-08T23:40:48.088Z,57.40
2018-04-08T23:43:15.541Z,57.80
2018-04-08T23:45:43.734Z,57.80
2018-04-08T23:48:11.197Z,57.80
2018-04-08T23:50:38.673Z,57.70
2018-04-08T23:53:06.074Z,57.70
2018-04-08T23:55:34.283Z,58.00
2018-04-08T23:58:01.713Z,58.00
